createdAt,value
2016-04-08T00:00:04.802Z,17.71
2016-04-08T00:01:04.821Z,17.71
2016-04-08T00:02:04.854Z,17.81
2016-04-08T00:03:04.888Z,17.71
2016-04-08T00:04:04.907Z,17.61
2016-04-08T00:05:04.941Z,17.61
2016-04-08T00:06:04.975Z,17.71
2016-04-08T00:07:04.993Z,17.61
2016-04-08T00:08:05.074Z,17.71
2016-04-08T00:09:05.046Z,17.71
2016-04-08T00:10:05.064Z,17.71
2016-04-08T00:11:05.098Z,17.42
2016-04-08T00:12:05.132Z,17.52
2016-04-08T00:13:05.151Z,17.42
2016-04-08T00:14:05.188Z,17.42
2016-04-08T00:15:05.207Z,17.42
2016-04-08T00:16:05.240Z,17.52
2016-04-08T00:17:05.274Z,17.52
2016-04-08T00:18:05.293Z,17.42
2016-04-08T00:19:05.327Z,17.32
2016-04-08T00:20:05.360Z,17.13
2016-04-08T00:21:05.395Z,17.13
2016-04-08T00:22:05.444Z,16.84
2016-04-08T00:23:05.431Z,16.84
2016-04-08T00:24:05.496Z,16.84
2016-04-08T00:25:05.483Z,16.94
2016-04-08T00:26:05.517Z,16.84
2016-04-08T00:27:05.551Z,17.03
2016-04-08T00:28:05.631Z,16.94
2016-04-08T00:29:05.619Z,17.22
2016-04-08T00:30:05.621Z,17.52
2016-04-08T00:31:05.655Z,17.52
2016-04-08T00:32:05.720Z,17.32
2016-04-08T00:33:05.738Z,17.32
2016-04-08T00:34:05.758Z,17.61
2016-04-08T00:35:05.791Z,17.71
2016-04-08T00:36:05.810Z,17.61
2016-04-08T00:37:05.828Z,17.61
2016-04-08T00:38:05.861Z,17.71
2016-04-08T00:39:05.911Z,17.61
2016-04-08T00:40:05.930Z,17.61
2016-04-08T00:41:05.948Z,17.42
2016-04-08T00:42:05.966Z,17.71
2016-04-08T00:43:05.999Z,17.42
2016-04-08T00:44:06.096Z,17.61
2016-04-08T00:45:06.115Z,17.71
2016-04-08T00:46:06.101Z,17.42
2016-04-08T00:47:06.104Z,17.71
2016-04-08T00:48:06.123Z,17.61
2016-04-08T00:49:06.173Z,17.61
2016-04-08T00:50:06.207Z,17.52
2016-04-08T00:51:06.225Z,17.61
2016-04-08T00:52:06.259Z,17.42
2016-04-08T00:53:06.276Z,17.52
2016-04-08T00:54:06.295Z,17.42
2016-04-08T00:55:06.361Z,17.52
2016-04-08T00:56:06.363Z,17.61
2016-04-08T00:57:06.398Z,17.71
2016-04-08T00:58:06.415Z,17.42
2016-04-08T00:59:06.450Z,17.52
2016-04-08T01:00:06.467Z,17.52
2016-04-08T01:01:06.502Z,17.42
2016-04-08T01:02:06.536Z,17.52
2016-04-08T01:03:06.569Z,17.71
2016-04-08T01:04:06.588Z,17.42
2016-04-08T01:05:06.622Z,17.52
2016-04-08T01:06:06.624Z,17.52
2016-04-08T01:07:06.674Z,17.42
2016-04-08T01:08:06.708Z,17.61
2016-04-08T01:09:06.726Z,17.61
2016-04-08T01:10:06.761Z,17.71
2016-04-08T01:11:06.810Z,17.71
2016-04-08T01:12:06.813Z,17.71
2016-04-08T01:13:06.831Z,17.42
2016-04-08T01:14:06.865Z,17.71
2016-04-08T01:15:06.899Z,17.32
2016-04-08T01:16:06.932Z,17.42
2016-04-08T01:17:06.951Z,17.71
2016-04-08T01:18:06.985Z,17.71
2016-04-08T01:19:07.018Z,17.61
2016-04-08T01:20:07.037Z,17.61
2016-04-08T01:21:07.070Z,17.61
2016-04-08T01:22:07.120Z,17.42
2016-04-08T01:23:07.123Z,17.71
2016-04-08T01:24:07.157Z,17.71
2016-04-08T01:25:07.176Z,17.61
2016-04-08T01:26:07.194Z,17.71
2016-04-08T01:27:07.228Z,17.71
2016-04-08T01:28:07.245Z,17.71
2016-04-08T01:29:07.280Z,17.52
2016-04-08T01:30:07.314Z,17.61
2016-04-08T01:31:07.347Z,17.71
2016-04-08T01:32:07.366Z,17.61
2016-04-08T01:33:07.384Z,17.71
2016-04-08T01:34:07.419Z,17.71
2016-04-08T01:35:07.484Z,17.71
2016-04-08T01:36:07.503Z,17.61
2016-04-08T01:37:07.505Z,17.52
2016-04-08T01:38:07.555Z,17.61
2016-04-08T01:39:07.557Z,17.52
2016-04-08T01:40:07.591Z,17.61
2016-04-08T01:41:07.625Z,17.71
2016-04-08T01:42:07.643Z,17.42
2016-04-08T01:43:07.849Z,17.71
2016-04-08T01:44:07.710Z,17.42
2016-04-08T01:45:07.760Z,17.42
2016-04-08T01:46:07.763Z,17.61
2016-04-08T01:47:07.797Z,17.9
2016-04-08T01:48:07.816Z,17.61
2016-04-08T01:49:07.865Z,17.42
2016-04-08T01:50:07.884Z,17.61
2016-04-08T01:51:07.901Z,17.81
2016-04-08T01:52:07.935Z,17.71
2016-04-08T01:53:07.954Z,17.71
2016-04-08T01:54:07.987Z,17.61
2016-04-08T01:55:08.022Z,17.81
2016-04-08T01:56:08.039Z,17.71
2016-04-08T01:57:08.105Z,17.81
2016-04-08T01:58:08.264Z,18
2016-04-08T01:59:08.158Z,17.71
2016-04-08T02:00:08.161Z,17.61
2016-04-08T02:01:08.178Z,17.81
2016-04-08T02:02:08.212Z,17.71
2016-04-08T02:03:08.231Z,17.81
2016-04-08T02:04:08.281Z,17.71
2016-04-08T02:05:08.314Z,17.81
2016-04-08T02:06:08.333Z,17.9
2016-04-08T02:07:08.350Z,17.52
2016-04-08T02:08:08.383Z,17.61
2016-04-08T02:09:08.448Z,17.81
2016-04-08T02:10:08.436Z,17.81
2016-04-08T02:11:08.470Z,17.81
2016-04-08T02:12:08.487Z,17.81
2016-04-08T02:13:08.569Z,17.81
2016-04-08T02:14:08.539Z,17.81
2016-04-08T02:15:08.605Z,17.61
2016-04-08T02:16:08.608Z,17.9
2016-04-08T02:17:08.641Z,17.52
2016-04-08T02:18:08.660Z,17.9
2016-04-08T02:19:08.693Z,17.9
2016-04-08T02:20:08.727Z,17.9
2016-04-08T02:21:08.761Z,17.52
2016-04-08T02:22:08.779Z,17.61
2016-04-08T02:23:08.813Z,17.61
2016-04-08T02:24:08.848Z,17.61
2016-04-08T02:25:08.866Z,17.52
2016-04-08T02:26:08.916Z,17.52
2016-04-08T02:27:08.919Z,17.9
2016-04-08T02:28:08.999Z,17.9
2016-04-08T02:29:08.971Z,17.61
2016-04-08T02:30:09.004Z,17.71
2016-04-08T02:31:09.023Z,17.9
2016-04-08T02:32:09.056Z,17.52
2016-04-08T02:33:09.075Z,17.61
2016-04-08T02:34:09.125Z,17.61
2016-04-08T02:35:09.143Z,17.9
2016-04-08T02:36:09.162Z,17.52
2016-04-08T02:37:09.179Z,17.71
2016-04-08T02:38:09.229Z,17.52
2016-04-08T02:39:09.248Z,17.52
2016-04-08T02:40:09.281Z,17.52
2016-04-08T02:41:09.300Z,17.61
2016-04-08T02:42:09.333Z,17.52
2016-04-08T02:43:09.258Z,17.52
2016-04-08T02:44:09.433Z,17.52
2016-04-08T02:45:09.419Z,17.52
2016-04-08T02:46:09.453Z,17.61
2016-04-08T02:47:09.488Z,17.61
2016-04-08T02:48:09.522Z,17.81
2016-04-08T02:49:09.524Z,17.81
2016-04-08T02:50:09.558Z,17.61
2016-04-08T02:51:09.592Z,17.52
2016-04-08T02:52:09.627Z,18.1
2016-04-08T02:53:09.644Z,17.61
2016-04-08T02:54:09.679Z,17.81
2016-04-08T02:55:09.713Z,17.61
2016-04-08T02:56:09.730Z,17.52
2016-04-08T02:57:09.749Z,17.61
2016-04-08T02:58:09.798Z,17.61
2016-04-08T02:59:09.817Z,17.52
2016-04-08T03:00:09.851Z,17.52
2016-04-08T03:01:09.869Z,17.52
2016-04-08T03:02:09.904Z,17.52
2016-04-08T03:03:09.921Z,17.52
2016-04-08T03:04:09.956Z,17.61
2016-04-08T03:05:09.989Z,17.9
2016-04-08T03:06:10.023Z,17.81
2016-04-08T03:07:10.042Z,17.9
2016-04-08T03:08:10.091Z,17.52
2016-04-08T03:09:10.109Z,17.61
2016-04-08T03:10:10.127Z,17.81
2016-04-08T03:11:10.145Z,17.81
2016-04-08T03:12:10.180Z,17.9
2016-04-08T03:13:10.213Z,17.71
2016-04-08T03:14:10.233Z,17.9
2016-04-08T03:15:10.266Z,17.81
2016-04-08T03:16:10.316Z,17.81
2016-04-08T03:17:10.319Z,17.71
2016-04-08T03:18:10.336Z,17.81
2016-04-08T03:19:10.402Z,17.71
2016-04-08T03:20:10.405Z,17.61
2016-04-08T03:21:10.422Z,17.42
2016-04-08T03:22:10.488Z,17.52
2016-04-08T03:23:10.522Z,17.61
2016-04-08T03:24:10.510Z,17.32
2016-04-08T03:25:10.559Z,16.84
2016-04-08T03:26:10.593Z,16.94
2016-04-08T03:27:10.596Z,16.84
2016-04-08T03:28:10.630Z,16.84
2016-04-08T03:29:10.648Z,17.03
2016-04-08T03:30:10.682Z,16.64
2016-04-08T03:31:10.699Z,16.55
2016-04-08T03:32:10.734Z,16.46
2016-04-08T03:33:10.767Z,16.46
2016-04-08T03:34:10.786Z,16.74
2016-04-08T03:35:10.853Z,17.22
2016-04-08T03:36:10.931Z,17.42
2016-04-08T03:37:11.009Z,17.52
2016-04-08T03:38:11.071Z,17.42
2016-04-08T03:39:11.134Z,17.32
2016-04-08T03:40:11.205Z,17.42
2016-04-08T03:41:11.255Z,17.52
2016-04-08T03:42:11.288Z,17.52
2016-04-08T03:43:11.323Z,17.42
2016-04-08T03:44:11.357Z,17.71
2016-04-08T03:45:11.399Z,17.42
2016-04-08T03:46:11.469Z,17.52
2016-04-08T03:47:11.461Z,17.32
2016-04-08T03:48:11.500Z,17.42
2016-04-08T03:49:11.539Z,17.42
2016-04-08T03:50:11.561Z,17.32
2016-04-08T03:51:11.597Z,17.42
2016-04-08T03:52:11.633Z,17.32
2016-04-08T03:53:11.653Z,17.32
2016-04-08T03:54:11.705Z,17.32
2016-04-08T03:55:11.724Z,17.22
2016-04-08T03:56:11.743Z,17.52
2016-04-08T03:57:11.809Z,17.52
2016-04-08T03:58:11.797Z,17.61
2016-04-08T03:59:11.862Z,17.42
2016-04-08T04:00:11.865Z,17.52
2016-04-08T04:01:11.900Z,17.42
2016-04-08T04:02:11.951Z,17.42
2016-04-08T04:03:11.938Z,17.52
2016-04-08T04:04:11.972Z,17.61
2016-04-08T04:05:12.006Z,17.52
2016-04-08T04:06:12.024Z,17.52
2016-04-08T04:07:12.058Z,17.52
2016-04-08T04:08:12.076Z,17.52
2016-04-08T04:09:12.110Z,17.61
2016-04-08T04:10:12.144Z,17.52
2016-04-08T04:11:12.209Z,17.52
2016-04-08T04:12:12.212Z,17.81
2016-04-08T04:13:12.215Z,17.61
2016-04-08T04:14:12.248Z,17.42
2016-04-08T04:15:12.283Z,17.42
2016-04-08T04:16:12.317Z,17.42
2016-04-08T04:17:12.382Z,17.42
2016-04-08T04:18:12.385Z,17.42
2016-04-08T04:19:12.403Z,17.32
2016-04-08T04:20:12.421Z,17.22
2016-04-08T04:21:12.455Z,17.32
2016-04-08T04:22:12.473Z,17.42
2016-04-08T04:23:12.523Z,17.22
2016-04-08T04:24:12.542Z,17.22
2016-04-08T04:25:12.575Z,17.22
2016-04-08T04:26:12.578Z,17.22
2016-04-08T04:27:12.611Z,17.42
2016-04-08T04:28:12.661Z,17.22
2016-04-08T04:29:12.680Z,17.32
2016-04-08T04:30:12.698Z,17.32
2016-04-08T04:31:12.733Z,17.22
2016-04-08T04:32:12.766Z,17.42
2016-04-08T04:33:12.785Z,17.22
2016-04-08T04:34:12.849Z,17.32
2016-04-08T04:35:12.883Z,17.22
2016-04-08T04:36:12.871Z,17.42
2016-04-08T04:37:12.904Z,17.22
2016-04-08T04:38:12.923Z,17.42
2016-04-08T04:39:12.957Z,17.22
2016-04-08T04:40:12.975Z,17.22
2016-04-08T04:41:13.025Z,17.22
2016-04-08T04:42:13.027Z,17.22
2016-04-08T04:43:13.062Z,17.42
2016-04-08T04:44:13.110Z,17.22
2016-04-08T04:45:13.129Z,17.22
2016-04-08T04:46:13.148Z,17.42
2016-04-08T04:47:13.181Z,17.32
2016-04-08T04:48:13.231Z,17.22
2016-04-08T04:49:13.280Z,17.42
2016-04-08T04:50:13.267Z,17.22
2016-04-08T04:51:13.286Z,17.22
2016-04-08T04:52:13.320Z,17.22
2016-04-08T04:53:13.384Z,17.42
2016-04-08T04:54:13.388Z,17.32
2016-04-08T04:55:13.406Z,17.22
2016-04-08T04:56:13.440Z,17.22
2016-04-08T04:57:13.490Z,17.42
2016-04-08T04:58:13.492Z,17.32
2016-04-08T04:59:13.511Z,17.32
2016-04-08T05:00:13.544Z,17.42
2016-04-08T05:01:13.578Z,17.42
2016-04-08T05:02:13.613Z,17.52
2016-04-08T05:03:13.630Z,17.22
2016-04-08T05:04:13.649Z,17.22
2016-04-08T05:05:13.682Z,17.32
2016-04-08T05:06:13.716Z,17.22
2016-04-08T05:07:13.735Z,17.42
2016-04-08T05:08:13.769Z,17.22
2016-04-08T05:09:13.819Z,17.52
2016-04-08T05:10:13.821Z,17.24
2016-04-08T05:11:13.855Z,17.32
2016-04-08T05:12:13.890Z,17.32
2016-04-08T05:13:13.923Z,17.22
2016-04-08T05:14:13.973Z,17.32
2016-04-08T05:15:13.991Z,17.52
2016-04-08T05:16:13.993Z,17.52
2016-04-08T05:17:14.013Z,17.13
2016-04-08T05:18:14.062Z,17.32
2016-04-08T05:19:14.096Z,17.61
2016-04-08T05:20:14.115Z,17.52
2016-04-08T05:21:14.132Z,17.22
2016-04-08T05:22:14.167Z,17.61
2016-04-08T05:23:14.215Z,17.52
2016-04-08T05:24:14.218Z,17.13
2016-04-08T05:25:14.253Z,17.71
2016-04-08T05:26:14.270Z,17.71
2016-04-08T05:27:14.305Z,17.42
2016-04-08T05:28:14.338Z,17.42
2016-04-08T05:29:14.372Z,17.22
2016-04-08T05:30:14.391Z,17.52
2016-04-08T05:31:14.425Z,17.22
2016-04-08T05:32:14.444Z,17.32
2016-04-08T05:33:14.492Z,17.13
2016-04-08T05:34:14.495Z,17.42
2016-04-08T05:35:14.561Z,17.52
2016-04-08T05:36:14.548Z,17.32
2016-04-08T05:37:14.597Z,17.42
2016-04-08T05:38:14.616Z,17.61
2016-04-08T05:39:14.633Z,17.61
2016-04-08T05:40:14.683Z,17.42
2016-04-08T05:41:14.702Z,17.13
2016-04-08T05:42:14.720Z,17.22
2016-04-08T05:43:14.754Z,17.61
2016-04-08T05:44:14.771Z,17.71
2016-04-08T05:45:14.821Z,17.71
2016-04-08T05:46:14.840Z,17.71
2016-04-08T05:47:14.889Z,17.52
2016-04-08T05:48:14.908Z,17.61
2016-04-08T05:49:14.926Z,17.52
2016-04-08T05:50:14.929Z,17.61
2016-04-08T05:51:14.995Z,17.61
2016-04-08T05:52:15.012Z,17.52
2016-04-08T05:53:15.046Z,17.61
2016-04-08T05:54:15.048Z,17.61
2016-04-08T05:55:15.098Z,17.52
2016-04-08T05:56:15.148Z,17.61
2016-04-08T05:57:15.135Z,17.52
2016-04-08T05:58:15.153Z,17.52
2016-04-08T05:59:15.250Z,17.52
2016-04-08T06:00:15.253Z,17.71
2016-04-08T06:01:15.303Z,17.61
2016-04-08T06:02:15.289Z,17.61
2016-04-08T06:03:15.323Z,17.61
2016-04-08T06:04:15.342Z,17.61
2016-04-08T06:05:15.375Z,17.52
2016-04-08T06:06:15.394Z,17.52
2016-04-08T06:07:15.428Z,17.42
2016-04-08T06:08:15.446Z,17.42
2016-04-08T06:09:15.511Z,17.52
2016-04-08T06:10:15.513Z,17.42
2016-04-08T06:11:15.548Z,17.42
2016-04-08T06:12:15.582Z,17.81
2016-04-08T06:13:15.600Z,17.61
2016-04-08T06:14:15.618Z,17.52
2016-04-08T06:15:15.638Z,17.43
2016-04-08T06:16:15.671Z,17.13
2016-04-08T06:17:15.705Z,17.32
2016-04-08T06:18:15.754Z,17.52
2016-04-08T06:19:15.757Z,17.13
2016-04-08T06:20:15.791Z,17.32
2016-04-08T06:21:15.825Z,17.32
2016-04-08T06:22:15.828Z,17.61
2016-04-08T06:23:15.877Z,17.61
2016-04-08T06:24:15.911Z,17.42
2016-04-08T06:25:15.945Z,17.52
2016-04-08T06:26:15.947Z,17.32
2016-04-08T06:27:15.981Z,17.32
2016-04-08T06:28:16.047Z,17.61
2016-04-08T06:29:16.049Z,17.42
2016-04-08T06:30:16.083Z,17.42
2016-04-08T06:31:16.086Z,17.32
2016-04-08T06:32:16.120Z,17.42
2016-04-08T06:33:16.154Z,17.61
2016-04-08T06:34:16.204Z,17.32
2016-04-08T06:35:16.238Z,17.22
2016-04-08T06:36:16.241Z,17.42
2016-04-08T06:37:16.275Z,17.22
2016-04-08T06:38:16.293Z,17.42
2016-04-08T06:39:16.327Z,17.32
2016-04-08T06:40:16.377Z,17.32
2016-04-08T06:41:16.380Z,17.22
2016-04-08T06:42:16.413Z,17.22
2016-04-08T06:43:16.431Z,17.42
2016-04-08T06:44:16.466Z,17.42
2016-04-08T06:45:16.483Z,17.42
2016-04-08T06:46:16.533Z,17.22
2016-04-08T06:47:16.552Z,17.42
2016-04-08T06:48:16.586Z,17.22
2016-04-08T06:49:16.604Z,17.22
2016-04-08T06:50:16.638Z,17.22
2016-04-08T06:51:16.656Z,17.14
2016-04-08T06:52:16.690Z,17.32
2016-04-08T06:53:16.723Z,17.13
2016-04-08T06:54:16.742Z,17.22
2016-04-08T06:55:16.776Z,17.32
2016-04-08T06:56:16.795Z,17.13
2016-04-08T06:57:16.843Z,17.32
2016-04-08T06:58:16.690Z,17.22
2016-04-08T06:59:16.881Z,17.32
2016-04-08T07:00:16.904Z,17.22
2016-04-08T07:01:16.937Z,17.14
2016-04-08T07:02:16.972Z,17.13
2016-04-08T07:03:16.989Z,17.13
2016-04-08T07:04:17.055Z,17.22
2016-04-08T07:05:17.041Z,17.22
2016-04-08T07:06:17.075Z,17.32
2016-04-08T07:07:17.110Z,17.13
2016-04-08T07:08:16.973Z,17.14
2016-04-08T07:09:17.163Z,17.22
2016-04-08T07:10:17.198Z,17.22
2016-04-08T07:11:17.215Z,17.32
2016-04-08T07:12:17.281Z,17.32
2016-04-08T07:13:17.283Z,17.13
2016-04-08T07:14:17.443Z,17.13
2016-04-08T07:15:17.336Z,17.22
2016-04-08T07:16:17.354Z,17.32
2016-04-08T07:17:17.388Z,17.22
2016-04-08T07:18:17.406Z,16.84
2016-04-08T07:19:17.441Z,16.55
2016-04-08T07:20:17.474Z,16.36
2016-04-08T07:21:17.508Z,16.46
2016-04-08T07:22:17.573Z,16.16
2016-04-08T07:23:17.561Z,16.26
2016-04-08T07:24:17.594Z,16.26
2016-04-08T07:25:17.613Z,16.06
2016-04-08T07:26:17.631Z,16.06
2016-04-08T07:27:17.680Z,16.26
2016-04-08T07:28:17.683Z,16.06
2016-04-08T07:29:17.873Z,15.97
2016-04-08T07:30:17.017Z,16.16
2016-04-08T07:31:17.769Z,16.06
2016-04-08T07:32:17.803Z,15.97
2016-04-08T07:33:17.837Z,16.16
2016-04-08T07:34:17.871Z,16.06
2016-04-08T07:35:17.921Z,16.16
2016-04-08T07:36:17.939Z,16.36
2016-04-08T07:37:17.942Z,16.26
2016-04-08T07:38:17.976Z,16.16
2016-04-08T07:39:17.995Z,16.16
2016-04-08T07:40:18.028Z,16.06
2016-04-08T07:41:18.062Z,16.36
2016-04-08T07:42:18.096Z,16.06
2016-04-08T07:43:18.115Z,16.06
2016-04-08T07:44:18.429Z,16.36
2016-04-08T07:45:18.181Z,16.94
2016-04-08T07:46:18.231Z,16.94
2016-04-08T07:47:18.219Z,16.94
2016-04-08T07:48:18.253Z,16.84
2016-04-08T07:49:18.303Z,17.22
2016-04-08T07:50:18.321Z,17.22
2016-04-08T07:51:18.339Z,17.42
2016-04-08T07:52:18.372Z,17.42
2016-04-08T07:53:18.408Z,17.42
2016-04-08T07:54:18.425Z,17.22
2016-04-08T07:55:18.444Z,17.22
2016-04-08T07:56:18.493Z,17.22
2016-04-08T07:57:18.511Z,17.32
2016-04-08T07:58:18.530Z,17.13
2016-04-08T07:59:18.610Z,17.42
2016-04-08T08:00:18.597Z,17.22
2016-04-08T08:01:18.616Z,17.32
2016-04-08T08:02:18.634Z,17.32
2016-04-08T08:03:18.668Z,17.32
2016-04-08T08:04:18.701Z,17.22
2016-04-08T08:05:18.721Z,17.22
2016-04-08T08:06:18.754Z,17.42
2016-04-08T08:07:18.804Z,17.22
2016-04-08T08:08:18.822Z,17.42
2016-04-08T08:09:18.871Z,17.22
2016-04-08T08:10:18.874Z,17.22
2016-04-08T08:11:18.908Z,17.42
2016-04-08T08:12:18.943Z,17.32
2016-04-08T08:13:18.961Z,17.32
2016-04-08T08:14:19.010Z,17.32
2016-04-08T08:15:19.012Z,17.42
2016-04-08T08:16:19.031Z,17.22
2016-04-08T08:17:19.065Z,16.84
2016-04-08T08:18:19.099Z,16.26
2016-04-08T08:19:19.133Z,16.16
2016-04-08T08:20:19.167Z,16.16
2016-04-08T08:21:19.170Z,16.36
2016-04-08T08:22:19.219Z,16.06
2016-04-08T08:23:19.238Z,16.06
2016-04-08T08:24:19.272Z,15.87
2016-04-08T08:25:19.305Z,15.87
2016-04-08T08:26:19.324Z,15.87
2016-04-08T08:27:19.374Z,16.06
2016-04-08T08:28:19.377Z,16.36
2016-04-08T08:29:19.457Z,16.16
2016-04-08T08:30:19.427Z,16.26
2016-04-08T08:31:19.463Z,16.26
2016-04-08T08:32:19.496Z,16.26
2016-04-08T08:33:19.515Z,16.06
2016-04-08T08:34:19.564Z,16.16
2016-04-08T08:35:19.582Z,16.06
2016-04-08T08:36:19.601Z,16.26
2016-04-08T08:37:19.651Z,16.26
2016-04-08T08:38:19.668Z,16.06
2016-04-08T08:39:19.687Z,16.06
2016-04-08T08:40:19.548Z,16.46
2016-04-08T08:41:19.739Z,16.46
2016-04-08T08:42:19.757Z,16.46
2016-04-08T08:43:19.791Z,16.55
2016-04-08T08:44:19.825Z,16.06
2016-04-08T08:45:19.843Z,16.06
2016-04-08T08:46:19.878Z,16.06
2016-04-08T08:47:19.895Z,16.06
2016-04-08T08:48:19.930Z,16.26
2016-04-08T08:49:19.948Z,16.26
2016-04-08T08:50:19.981Z,16.26
2016-04-08T08:51:20.016Z,15.97
2016-04-08T08:52:20.065Z,15.87
2016-04-08T08:53:20.069Z,15.87
2016-04-08T08:54:20.102Z,15.78
2016-04-08T08:55:20.152Z,15.68
2016-04-08T08:56:20.170Z,15.78
2016-04-08T08:57:20.172Z,15.87
2016-04-08T08:58:20.769Z,15.87
2016-04-08T08:59:20.085Z,15.78
2016-04-08T09:00:20.274Z,16.06
2016-04-08T09:01:20.293Z,15.97
2016-04-08T09:02:20.310Z,16.26
2016-04-08T09:03:20.346Z,16.36
2016-04-08T09:04:20.363Z,16.26
2016-04-08T09:05:20.397Z,16.26
2016-04-08T09:06:20.432Z,15.87
2016-04-08T09:07:20.449Z,15.97
2016-04-08T09:08:20.499Z,15.87
2016-04-08T09:09:20.517Z,15.78
2016-04-08T09:10:20.536Z,15.78
2016-04-08T09:11:20.570Z,15.87
2016-04-08T09:12:20.619Z,15.68
2016-04-08T09:13:20.637Z,15.68
2016-04-08T09:14:20.656Z,15.97
2016-04-08T09:15:20.674Z,16.06
2016-04-08T09:16:20.709Z,16.06
2016-04-08T09:17:20.726Z,16.16
2016-04-08T09:18:20.760Z,16.36
2016-04-08T09:19:20.794Z,16.16
2016-04-08T09:20:20.812Z,16.16
2016-04-08T09:21:20.862Z,16.06
2016-04-08T09:22:20.896Z,16.26
2016-04-08T09:23:20.899Z,16.26
2016-04-08T09:24:20.933Z,16.06
2016-04-08T09:25:20.950Z,15.87
2016-04-08T09:26:20.986Z,15.68
2016-04-08T09:27:21.035Z,15.68
2016-04-08T09:28:21.052Z,15.68
2016-04-08T09:29:21.072Z,15.78
2016-04-08T09:30:21.230Z,16.06
2016-04-08T09:31:21.124Z,15.68
2016-04-08T09:32:21.157Z,15.58
2016-04-08T09:33:21.160Z,15.78
2016-04-08T09:34:21.210Z,15.87
2016-04-08T09:35:21.228Z,15.97
2016-04-08T09:36:21.247Z,15.87
2016-04-08T09:37:21.296Z,16.26
2016-04-08T09:38:21.314Z,15.87
2016-04-08T09:39:21.363Z,15.78
2016-04-08T09:40:21.382Z,15.68
2016-04-08T09:41:21.415Z,15.87
2016-04-08T09:42:21.434Z,15.87
2016-04-08T09:43:21.453Z,15.87
2016-04-08T09:44:21.470Z,15.87
2016-04-08T09:45:21.520Z,15.87
2016-04-08T09:46:21.539Z,15.78
2016-04-08T09:47:21.557Z,15.87
2016-04-08T09:48:21.591Z,15.97
2016-04-08T09:49:21.625Z,16.26
2016-04-08T09:50:21.643Z,15.87
2016-04-08T09:51:21.677Z,15.87
2016-04-08T09:52:21.711Z,15.78
2016-04-08T09:53:21.730Z,15.68
2016-04-08T09:54:21.763Z,15.78
2016-04-08T09:55:21.782Z,15.68
2016-04-08T09:56:21.816Z,15.97
2016-04-08T09:57:21.865Z,15.39
2016-04-08T09:58:21.871Z,15.39
2016-04-08T09:59:21.906Z,15.39
2016-04-08T10:00:22.049Z,15.78
2016-04-08T10:01:22.599Z,15.39
2016-04-08T10:02:21.992Z,15.39
2016-04-08T10:03:22.010Z,15.87
2016-04-08T10:04:22.029Z,15.58
2016-04-08T10:05:22.062Z,15.68
2016-04-08T10:06:22.097Z,16.26
2016-04-08T10:07:22.145Z,15.97
2016-04-08T10:08:22.164Z,15.58
2016-04-08T10:09:22.230Z,15.97
2016-04-08T10:10:22.200Z,15.87
2016-04-08T10:11:22.236Z,15.87
2016-04-08T10:12:22.269Z,15.78
2016-04-08T10:13:22.286Z,16.06
2016-04-08T10:14:22.305Z,16.06
2016-04-08T10:15:22.339Z,15.97
2016-04-08T10:16:22.374Z,15.68
2016-04-08T10:17:22.422Z,15.68
2016-04-08T10:18:22.441Z,15.78
2016-04-08T10:19:22.475Z,15.97
2016-04-08T10:20:22.493Z,15.87
2016-04-08T10:21:22.528Z,15.78
2016-04-08T10:22:22.561Z,15.87
2016-04-08T10:23:22.563Z,15.97
2016-04-08T10:24:22.614Z,15.97
2016-04-08T10:25:22.663Z,15.78
2016-04-08T10:26:22.651Z,15.97
2016-04-08T10:27:22.684Z,16.26
2016-04-08T10:28:22.718Z,15.87
2016-04-08T10:29:22.737Z,15.87
2016-04-08T10:30:22.755Z,16.06
2016-04-08T10:31:22.804Z,16.16
2016-04-08T10:32:22.837Z,15.68
2016-04-08T10:33:22.856Z,15.87
2016-04-08T10:34:22.875Z,15.78
2016-04-08T10:35:22.909Z,15.68
2016-04-08T10:36:22.927Z,15.87
2016-04-08T10:37:23.008Z,15.97
2016-04-08T10:38:22.995Z,16.06
2016-04-08T10:39:23.014Z,16.26
2016-04-08T10:40:23.031Z,16.26
2016-04-08T10:41:23.066Z,16.36
2016-04-08T10:42:22.943Z,16.16
2016-04-08T10:43:23.150Z,15.87
2016-04-08T10:44:23.152Z,15.78
2016-04-08T10:45:23.186Z,15.58
2016-04-08T10:46:23.219Z,15.68
2016-04-08T10:47:23.238Z,15.68
2016-04-08T10:48:23.272Z,15.78
2016-04-08T10:49:23.291Z,15.97
2016-04-08T10:50:23.308Z,16.36
2016-04-08T10:51:23.357Z,16.26
2016-04-08T10:52:23.377Z,16.06
2016-04-08T10:53:23.410Z,16.06
2016-04-08T10:54:23.444Z,15.78
2016-04-08T10:55:23.462Z,15.78
2016-04-08T10:56:23.512Z,16.06
2016-04-08T10:57:23.515Z,15.68
2016-04-08T10:58:23.549Z,15.87
2016-04-08T10:59:23.568Z,15.87
2016-04-08T11:00:23.598Z,15.58
2016-04-08T11:01:23.631Z,15.87
2016-04-08T11:02:23.682Z,16.06
2016-04-08T11:03:23.528Z,16.16
2016-04-08T11:04:23.702Z,16.16
2016-04-08T11:05:23.753Z,16.26
2016-04-08T11:06:23.755Z,16.26
2016-04-08T11:07:23.805Z,16.26
2016-04-08T11:08:23.822Z,16.36
2016-04-08T11:09:23.841Z,16.26
2016-04-08T11:10:23.875Z,16.36
2016-04-08T11:11:23.909Z,15.87
2016-04-08T11:12:23.927Z,15.78
2016-04-08T11:13:23.961Z,15.97
2016-04-08T11:14:24.010Z,15.87
2016-04-08T11:15:24.029Z,16.06
2016-04-08T11:16:24.047Z,15.87
2016-04-08T11:17:24.082Z,15.87
2016-04-08T11:18:24.100Z,15.78
2016-04-08T11:19:24.118Z,15.78
2016-04-08T11:20:24.183Z,15.97
2016-04-08T11:21:24.218Z,15.87
2016-04-08T11:22:24.251Z,15.78
2016-04-08T11:23:24.253Z,15.78
2016-04-08T11:24:24.257Z,15.78
2016-04-08T11:25:24.290Z,15.97
2016-04-08T11:26:24.323Z,15.87
2016-04-08T11:27:24.342Z,15.87
2016-04-08T11:28:24.376Z,15.87
2016-04-08T11:29:24.410Z,15.87
2016-04-08T11:30:24.429Z,15.68
2016-04-08T11:31:24.478Z,15.68
2016-04-08T11:32:24.497Z,15.68
2016-04-08T11:33:24.514Z,15.78
2016-04-08T11:34:24.549Z,15.97
2016-04-08T11:35:24.598Z,16.06
2016-04-08T11:36:24.601Z,15.87
2016-04-08T11:37:24.636Z,16.16
2016-04-08T11:38:24.653Z,15.97
2016-04-08T11:39:24.672Z,15.78
2016-04-08T11:40:24.706Z,15.97
2016-04-08T11:41:24.739Z,15.87
2016-04-08T11:42:24.774Z,16.06
2016-04-08T11:43:24.792Z,16.36
2016-04-08T11:44:24.825Z,16.06
2016-04-08T11:45:24.859Z,15.97
2016-04-08T11:46:24.909Z,15.97
2016-04-08T11:47:24.913Z,15.78
2016-04-08T11:48:24.930Z,15.87
2016-04-08T11:49:24.964Z,15.97
2016-04-08T11:50:24.998Z,15.97
2016-04-08T11:51:25.016Z,15.68
2016-04-08T11:52:25.051Z,16.06
2016-04-08T11:53:25.100Z,15.97
2016-04-08T11:54:25.102Z,16.06
2016-04-08T11:55:25.120Z,16.06
2016-04-08T11:56:25.140Z,15.68
2016-04-08T11:57:25.204Z,15.78
2016-04-08T11:58:25.223Z,16.06
2016-04-08T11:59:25.257Z,15.97
2016-04-08T12:00:25.150Z,15.87
2016-04-08T12:01:25.293Z,16.06
2016-04-08T12:02:25.312Z,15.78
2016-04-08T12:03:25.345Z,16.36
2016-04-08T12:04:25.379Z,16.06
2016-04-08T12:05:25.397Z,15.97
2016-04-08T12:06:25.432Z,15.97
2016-04-08T12:07:25.466Z,15.87
2016-04-08T12:08:25.484Z,15.68
2016-04-08T12:09:25.556Z,15.97
2016-04-08T12:10:25.604Z,15.68
2016-04-08T12:11:25.576Z,16.06
2016-04-08T12:12:25.595Z,16.36
2016-04-08T12:13:25.628Z,15.97
2016-04-08T12:14:25.662Z,15.87
2016-04-08T12:15:25.618Z,16.26
2016-04-08T12:16:25.714Z,16.26
2016-04-08T12:17:25.748Z,16.94
2016-04-08T12:18:25.767Z,16.94
2016-04-08T12:19:25.785Z,17.22
2016-04-08T12:20:25.819Z,17.22
2016-04-08T12:21:25.837Z,17.32
2016-04-08T12:22:25.886Z,17.22
2016-04-08T12:23:25.936Z,17.13
2016-04-08T12:24:25.938Z,16.46
2016-04-08T12:25:25.957Z,16.16
2016-04-08T12:26:26.007Z,16.16
2016-04-08T12:27:26.024Z,16.16
2016-04-08T12:28:26.043Z,16.36
2016-04-08T12:29:26.390Z,16.94
2016-04-08T12:30:26.079Z,17.13
2016-04-08T12:31:26.145Z,17.22
2016-04-08T12:32:26.148Z,17.22
2016-04-08T12:33:26.198Z,17.22
2016-04-08T12:34:26.200Z,17.22
2016-04-08T12:35:26.250Z,17.22
2016-04-08T12:36:26.268Z,17.22
2016-04-08T12:37:26.286Z,17.42
2016-04-08T12:38:26.320Z,17.42
2016-04-08T12:39:26.354Z,17.42
2016-04-08T12:40:26.388Z,17.32
2016-04-08T12:41:26.463Z,17.42
2016-04-08T12:42:26.521Z,17.22
2016-04-08T12:43:26.581Z,17.42
2016-04-08T12:44:26.655Z,16.74
2016-04-08T12:45:26.808Z,16.26
2016-04-08T12:46:26.779Z,15.97
2016-04-08T12:47:26.796Z,16.64
2016-04-08T12:48:26.860Z,16.94
2016-04-08T12:49:26.892Z,17.13
2016-04-08T12:50:26.926Z,17.32
2016-04-08T12:51:26.965Z,17.32
2016-04-08T12:52:27.020Z,17.22
2016-04-08T12:53:27.028Z,17.42